createdAt,value
2019-04-14T00:02:25.033Z,23.45
2019-04-14T00:05:06.180Z,23.20
2019-04-14T00:07:42.683Z,23.87
2019-04-14T00:10:31.163Z,23.27
2019-04-14T00:13:06.798Z,24.45
2019-04-14T00:15:46.728Z,23.60
2019-04-14T00:18:25.058Z,25.60
2019-04-14T00:21:00.564Z,23.65
2019-04-14T00:23:36.973Z,24.90
2019-04-14T00:26:27.260Z,25.68
2019-04-14T00:29:04.625Z,25.50
2019-04-14T00:31:41.190Z,25.62
2019-04-14T00:34:35.342Z,27.05
2019-04-14T00:37:38.750Z,24.67
2019-04-14T00:40:23.547Z,25.52
2019-04-14T00:43:07.619Z,27.48
2019-04-14T00:45:53.570Z,26.50
2019-04-14T00:48:28.059Z,19.07
2019-04-14T00:51:03.438Z,26.80
2019-04-14T00:53:40.232Z,27.05
2019-04-14T00:56:15.633Z,28.10
2019-04-14T00:58:51.824Z,27.42
2019-04-14T01:01:27.165Z,27.48
2019-04-14T01:04:03.456Z,27.65
2019-04-14T01:06:38.808Z,28.32
2019-04-14T01:09:15.247Z,28.75
2019-04-14T01:11:50.968Z,29.15
2019-04-14T01:14:27.663Z,28.15
2019-04-14T01:17:03.088Z,28.42
2019-04-14T01:19:39.436Z,29.95
2019-04-14T01:22:14.798Z,28.70
2019-04-14T01:24:51.070Z,29.42
2019-04-14T01:27:27.666Z,28.42
2019-04-14T01:30:04.682Z,30.23
2019-04-14T01:32:40.092Z,29.35
2019-04-14T01:35:18.186Z,28.45
2019-04-14T01:37:55.000Z,29.50
2019-04-14T01:40:31.462Z,29.00
2019-04-14T01:43:08.012Z,29.42
2019-04-14T01:45:44.859Z,28.90
2019-04-14T01:48:21.399Z,29.55
2019-04-14T01:51:18.800Z,30.32
2019-04-14T01:54:23.430Z,30.17
2019-04-14T01:57:17.488Z,28.80
2019-04-14T01:59:52.930Z,29.05
2019-04-14T02:02:29.127Z,30.68
2019-04-14T02:05:05.968Z,29.67
2019-04-14T02:07:41.461Z,31.12
2019-04-14T02:10:17.272Z,30.35
2019-04-14T02:12:52.627Z,30.00
2019-04-14T02:15:28.699Z,30.70
2019-04-14T02:18:05.492Z,29.87
2019-04-14T02:20:42.451Z,31.37
2019-04-14T02:23:19.153Z,30.75
2019-04-14T02:25:55.770Z,30.30
2019-04-14T02:28:33.102Z,29.90
2019-04-14T02:31:24.571Z,30.70
2019-04-14T02:34:19.167Z,30.65
2019-04-14T02:36:58.722Z,31.57
2019-04-14T02:39:31.152Z,31.68
2019-04-14T02:42:27.752Z,30.45
2019-04-14T02:44:47.794Z,31.48
2019-04-14T02:49:59.145Z,31.15
2019-04-14T02:52:35.261Z,31.73
2019-04-14T02:57:44.829Z,32.63
2019-04-14T03:00:23.934Z,33.28
2019-04-14T03:02:56.414Z,33.42
2019-04-14T03:05:49.072Z,32.75
2019-04-14T03:08:22.278Z,33.23
2019-04-14T03:10:57.017Z,34.35
2019-04-14T03:13:45.069Z,34.63
2019-04-14T03:22:09.240Z,35.13
2019-04-14T03:24:37.391Z,34.15
2019-04-14T03:27:40.214Z,35.80
2019-04-14T03:30:39.523Z,35.15
2019-04-14T03:33:48.283Z,37.35
2019-04-14T03:38:14.617Z,36.73
2019-04-14T03:40:48.978Z,37.35
2019-04-14T03:46:07.290Z,37.58
2019-04-14T03:53:48.966Z,37.93
2019-04-14T03:56:36.377Z,36.30
2019-04-14T03:59:12.725Z,35.20
2019-04-14T04:01:48.501Z,38.88
2019-04-14T04:04:25.011Z,38.08
2019-04-14T04:07:01.745Z,38.30
2019-04-14T04:09:41.405Z,37.67
2019-04-14T04:12:18.169Z,37.93
2019-04-14T04:14:53.526Z,37.23
2019-04-14T04:17:42.942Z,39.73
2019-04-14T04:20:37.304Z,37.80
2019-04-14T04:23:38.190Z,38.70
2019-04-14T04:26:38.698Z,37.80
2019-04-14T04:29:30.959Z,38.23
2019-04-14T04:32:25.511Z,37.83
2019-04-14T04:37:56.353Z,36.98
2019-04-14T04:40:33.220Z,38.17
2019-04-14T04:43:08.638Z,38.85
2019-04-14T04:45:45.153Z,38.45
2019-04-14T04:48:21.673Z,38.33
2019-04-14T04:50:58.456Z,39.18
2019-04-14T04:53:33.894Z,39.48
2019-04-14T04:56:10.021Z,38.85
2019-04-14T04:58:45.654Z,39.18
2019-04-14T05:01:21.110Z,37.78
2019-04-14T05:03:56.526Z,40.30
2019-04-14T05:07:03.647Z,40.17
2019-04-14T05:09:58.047Z,38.50
2019-04-14T05:12:43.417Z,40.80
2019-04-14T05:15:40.848Z,40.30
2019-04-14T05:18:27.422Z,38.13
2019-04-14T05:21:03.851Z,39.98
2019-04-14T05:23:39.319Z,40.48
2019-04-14T05:26:15.566Z,39.10
2019-04-14T05:28:50.983Z,40.83
2019-04-14T05:31:27.844Z,39.67
2019-04-14T05:34:04.397Z,41.90
2019-04-14T05:36:39.719Z,41.58
2019-04-14T05:39:16.189Z,41.85
2019-04-14T05:42:00.493Z,39.67
2019-04-14T05:44:29.590Z,37.70
2019-04-14T05:47:06.430Z,38.48
2019-04-14T05:49:47.064Z,38.80
2019-04-14T05:52:19.190Z,38.13
2019-04-14T05:54:55.704Z,39.98
2019-04-14T05:57:32.635Z,39.65
2019-04-14T06:00:12.342Z,40.92
2019-04-14T06:02:48.521Z,39.58
2019-04-14T06:05:25.269Z,42.35
2019-04-14T06:08:00.727Z,43.38
2019-04-14T06:10:36.230Z,42.10
2019-04-14T06:13:11.907Z,42.03
2019-04-14T06:15:47.484Z,41.95
2019-04-14T06:18:22.880Z,45.40
2019-04-14T06:20:58.315Z,42.95
2019-04-14T06:23:33.850Z,44.88
2019-04-14T06:26:09.244Z,45.43
2019-04-14T06:28:44.630Z,45.05
2019-04-14T06:31:50.784Z,43.63
2019-04-14T06:34:31.267Z,44.88
2019-04-14T06:37:21.075Z,46.88
2019-04-14T06:39:56.513Z,45.65
2019-04-14T06:42:35.036Z,46.80
2019-04-14T06:45:10.814Z,45.48
2019-04-14T06:47:46.305Z,47.75
2019-04-14T06:50:21.669Z,48.60
2019-04-14T06:52:57.119Z,47.45
2019-04-14T06:55:32.473Z,47.78
2019-04-14T06:58:07.989Z,47.17
2019-04-14T07:00:43.387Z,47.88
2019-04-14T07:03:18.771Z,48.52
2019-04-14T07:05:54.139Z,50.85
2019-04-14T07:08:29.997Z,50.83
2019-04-14T07:11:05.389Z,49.70
2019-04-14T07:13:40.773Z,49.85
2019-04-14T07:16:16.161Z,48.40
2019-04-14T07:18:51.568Z,51.18
2019-04-14T07:21:26.923Z,50.98
2019-04-14T07:24:02.319Z,49.45
2019-04-14T07:26:37.813Z,50.78
2019-04-14T07:29:14.767Z,51.63
2019-04-14T07:32:09.184Z,52.35
2019-04-14T07:35:06.708Z,52.73
2019-04-14T07:38:19.437Z,54.08
2019-04-14T07:41:13.448Z,54.08
2019-04-14T07:43:59.064Z,54.83
2019-04-14T07:46:42.453Z,56.45
2019-04-14T07:49:36.750Z,53.68
2019-04-14T07:52:29.419Z,55.60
2019-04-14T07:55:24.062Z,55.78
2019-04-14T07:58:31.495Z,55.08
2019-04-14T08:01:15.960Z,56.95
2019-04-14T08:04:04.230Z,56.33
2019-04-14T08:06:39.637Z,55.70
2019-04-14T08:09:15.156Z,53.83
2019-04-14T08:11:50.516Z,56.23
2019-04-14T08:14:25.897Z,54.50
2019-04-14T08:17:01.344Z,53.90
2019-04-14T08:19:36.849Z,57.27
2019-04-14T08:22:12.215Z,56.88
2019-04-14T08:24:47.774Z,54.77
2019-04-14T08:27:23.224Z,56.80
2019-04-14T08:29:58.776Z,53.83
2019-04-14T08:32:34.126Z,56.33
2019-04-14T08:35:09.759Z,55.92
2019-04-14T08:37:45.115Z,54.95
2019-04-14T08:40:20.584Z,54.75
2019-04-14T08:43:13.079Z,57.00
2019-04-14T08:46:07.419Z,57.05
2019-04-14T08:49:10.805Z,55.52
2019-04-14T08:54:54.158Z,53.48
2019-04-14T08:57:57.554Z,56.65
2019-04-14T09:00:57.919Z,57.60
2019-04-14T09:03:50.920Z,53.02
2019-04-14T09:06:36.102Z,57.10
2019-04-14T09:09:36.494Z,55.08
2019-04-14T09:12:21.756Z,54.48
2019-04-14T09:14:57.778Z,51.95
2019-04-14T09:17:33.234Z,52.78
2019-04-14T09:20:08.741Z,52.08
2019-04-14T09:22:44.116Z,54.42
2019-04-14T09:25:19.794Z,51.95
2019-04-14T09:27:55.144Z,49.42
2019-04-14T09:30:30.597Z,49.10
2019-04-14T09:33:05.962Z,49.93
2019-04-14T09:35:41.336Z,49.93
2019-04-14T09:38:21.847Z,50.38
2019-04-14T09:40:57.244Z,50.15
2019-04-14T09:43:32.611Z,48.40
2019-04-14T09:46:08.154Z,47.60
2019-04-14T09:48:43.498Z,49.60
2019-04-14T09:51:19.013Z,46.18
2019-04-14T09:53:54.371Z,47.17
2019-04-14T09:56:29.751Z,44.98
2019-04-14T09:59:08.463Z,45.73
2019-04-14T10:01:43.931Z,47.70
2019-04-14T10:04:19.347Z,47.30
2019-04-14T10:06:54.765Z,44.93
2019-04-14T10:09:31.111Z,42.60
2019-04-14T10:12:06.657Z,45.15
2019-04-14T10:14:42.075Z,44.33
2019-04-14T10:17:17.477Z,42.93
2019-04-14T10:19:52.839Z,43.02
2019-04-14T10:22:34.278Z,40.83
2019-04-14T10:25:05.936Z,41.95
2019-04-14T10:27:41.328Z,42.83
2019-04-14T10:30:16.714Z,44.75
2019-04-14T10:32:53.128Z,43.17
2019-04-14T10:35:28.477Z,44.27
2019-04-14T10:38:03.845Z,45.45
2019-04-14T10:40:39.234Z,44.23
2019-04-14T10:43:14.630Z,46.37
2019-04-14T10:45:50.016Z,44.03
2019-04-14T10:48:25.550Z,44.65
2019-04-14T10:51:00.944Z,46.42
2019-04-14T10:53:36.446Z,46.92
2019-04-14T10:56:19.346Z,47.48
2019-04-14T10:58:54.782Z,46.58
2019-04-14T11:01:30.146Z,47.80
2019-04-14T11:04:07.992Z,46.33
2019-04-14T11:06:52.011Z,46.25
2019-04-14T11:09:27.585Z,46.30
2019-04-14T11:12:03.046Z,45.78
2019-04-14T11:14:38.452Z,44.63
2019-04-14T11:17:13.815Z,44.85
2019-04-14T11:19:49.237Z,43.87
2019-04-14T11:22:24.696Z,45.80
2019-04-14T11:25:00.130Z,46.70
2019-04-14T11:27:35.502Z,43.80
2019-04-14T11:30:13.149Z,42.33
2019-04-14T11:33:11.402Z,42.85
2019-04-14T11:36:11.793Z,42.98
2019-04-14T11:39:00.437Z,41.42
2019-04-14T11:41:37.825Z,39.80
2019-04-14T11:44:13.149Z,38.60
2019-04-14T11:46:48.548Z,39.13
2019-04-14T11:49:23.933Z,37.78
2019-04-14T11:51:59.338Z,36.75
2019-04-14T11:54:34.712Z,37.85
2019-04-14T11:57:10.124Z,37.15
2019-04-14T11:59:53.210Z,38.02
2019-04-14T12:02:59.555Z,35.28
2019-04-14T12:05:46.631Z,34.65
2019-04-14T12:08:55.998Z,35.00
2019-04-14T12:11:31.362Z,34.92
2019-04-14T12:14:06.764Z,34.67
2019-04-14T12:16:44.906Z,34.27
2019-04-14T12:19:20.354Z,33.30
2019-04-14T12:22:07.787Z,31.33
2019-04-14T12:24:32.750Z,32.40
2019-04-14T12:27:08.129Z,32.38
2019-04-14T12:29:43.710Z,32.23
2019-04-14T12:32:19.791Z,29.87
2019-04-14T12:34:55.200Z,32.42
2019-04-14T12:37:30.677Z,31.48
2019-04-14T12:40:07.391Z,32.58
2019-04-14T12:43:04.731Z,29.40
2019-04-14T12:45:59.072Z,30.05
2019-04-14T12:48:51.705Z,29.15
2019-04-14T12:51:31.067Z,27.50
2019-04-14T12:54:06.684Z,29.18
2019-04-14T12:56:43.544Z,28.45
2019-04-14T12:59:23.158Z,27.07
2019-04-14T13:02:13.209Z,27.85
2019-04-14T13:04:48.611Z,27.58
2019-04-14T13:07:24.014Z,28.27
2019-04-14T13:09:59.482Z,30.30
2019-04-14T13:12:34.894Z,28.02
2019-04-14T13:15:10.569Z,27.87
2019-04-14T13:17:45.989Z,28.23
2019-04-14T13:20:21.364Z,26.68
2019-04-14T13:22:56.820Z,28.20
2019-04-14T13:25:32.210Z,27.42
2019-04-14T13:28:07.652Z,26.17
2019-04-14T13:30:45.272Z,25.17
2019-04-14T13:33:20.682Z,25.72
2019-04-14T13:35:56.063Z,26.12
2019-04-14T13:38:31.456Z,25.30
2019-04-14T13:41:06.878Z,26.30
2019-04-14T13:43:43.229Z,24.55
2019-04-14T13:46:18.903Z,25.65
2019-04-14T13:48:55.367Z,24.87
2019-04-14T13:51:30.770Z,25.43
2019-04-14T13:54:06.232Z,24.98
2019-04-14T13:56:41.588Z,27.00
2019-04-14T13:59:20.137Z,26.48
2019-04-14T14:01:55.501Z,25.82
2019-04-14T14:04:30.810Z,27.37
2019-04-14T14:07:06.665Z,27.30
2019-04-14T14:09:42.053Z,27.17
2019-04-14T14:12:40.883Z,25.80
2019-04-14T14:15:33.743Z,27.30
2019-04-14T14:18:37.179Z,26.35
2019-04-14T14:21:37.535Z,26.73
2019-04-14T14:24:46.787Z,25.72
2019-04-14T14:27:22.185Z,22.87
2019-04-14T14:29:57.551Z,23.85
2019-04-14T14:32:35.192Z,24.02
2019-04-14T14:35:10.613Z,24.23
2019-04-14T14:37:46.146Z,23.40
2019-04-14T14:40:21.506Z,22.55
2019-04-14T14:42:57.042Z,23.02
2019-04-14T14:45:49.976Z,21.17
2019-04-14T14:48:31.927Z,22.20
2019-04-14T14:51:12.591Z,22.10
2019-04-14T14:53:48.004Z,21.40
2019-04-14T14:56:23.387Z,22.10
2019-04-14T14:58:58.912Z,21.27
2019-04-14T15:01:34.240Z,21.62
2019-04-14T15:04:10.444Z,20.92
2019-04-14T15:06:46.046Z,21.65
2019-04-14T15:09:22.417Z,22.62
2019-04-14T15:11:57.700Z,23.15
2019-04-14T15:14:33.280Z,22.90
2019-04-14T15:17:08.651Z,23.12
2019-04-14T15:19:44.010Z,21.55
2019-04-14T15:22:19.446Z,24.80
2019-04-14T15:24:54.841Z,24.02
2019-04-14T15:27:30.188Z,24.43
2019-04-14T15:30:07.333Z,24.27
2019-04-14T15:32:42.696Z,23.07
2019-04-14T15:35:18.075Z,22.22
2019-04-14T15:37:53.415Z,22.67
2019-04-14T15:40:28.869Z,22.48
2019-04-14T15:43:04.222Z,22.17
2019-04-14T15:45:39.649Z,23.18
2019-04-14T15:48:15.103Z,21.75
2019-04-14T15:50:50.505Z,21.65
2019-04-14T15:53:37.328Z,23.02
2019-04-14T15:56:03.054Z,21.77
2019-04-14T15:58:52.626Z,22.02
2019-04-14T16:01:53.317Z,22.87
2019-04-14T16:04:45.183Z,21.85
2019-04-14T16:07:38.212Z,22.62
2019-04-14T16:10:32.610Z,22.20
2019-04-14T16:13:14.494Z,21.62
2019-04-14T16:15:54.656Z,22.13
2019-04-14T16:19:11.395Z,21.90
2019-04-14T16:21:46.878Z,20.75
2019-04-14T16:24:22.305Z,21.55
2019-04-14T16:27:05.766Z,22.02
2019-04-14T16:30:01.544Z,22.00
2019-04-14T16:32:56.041Z,22.93
2019-04-14T16:35:31.477Z,23.20
2019-04-14T16:38:07.057Z,22.93
2019-04-14T16:40:42.412Z,22.35
2019-04-14T16:43:17.876Z,22.27
2019-04-14T16:45:53.606Z,22.32
2019-04-14T16:48:29.070Z,22.37
2019-04-14T16:51:05.151Z,21.87
2019-04-14T16:53:46.582Z,24.40
2019-04-14T16:56:52.694Z,23.62
2019-04-14T16:59:28.036Z,24.27
2019-04-14T17:02:10.764Z,23.20
2019-04-14T17:04:42.303Z,23.85
2019-04-14T17:07:17.713Z,24.92
2019-04-14T17:09:53.206Z,24.52
2019-04-14T17:12:28.631Z,23.87
2019-04-14T17:15:14.133Z,23.65
2019-04-14T17:18:07.428Z,24.95
2019-04-14T17:21:32.882Z,24.30
2019-04-14T17:24:30.510Z,26.20
2019-04-14T17:27:29.474Z,25.90
2019-04-14T17:30:28.111Z,27.07
2019-04-14T17:33:14.505Z,27.00
2019-04-14T17:36:08.992Z,26.97
2019-04-14T17:39:08.124Z,25.57
2019-04-14T17:42:16.242Z,26.75
2019-04-14T17:45:10.556Z,25.88
2019-04-14T17:48:04.889Z,26.12
2019-04-14T17:51:03.608Z,26.40
2019-04-14T17:54:04.053Z,24.82
2019-04-14T17:57:11.388Z,26.02
2019-04-14T18:00:14.574Z,26.75
2019-04-14T18:02:59.885Z,25.68
2019-04-14T18:05:42.017Z,25.82
2019-04-14T18:08:25.309Z,26.25
2019-04-14T18:11:19.655Z,26.07
2019-04-14T18:14:06.138Z,26.33
2019-04-14T18:17:06.044Z,25.85
2019-04-14T18:19:54.700Z,25.68
2019-04-14T18:22:30.052Z,25.80
2019-04-14T18:25:06.438Z,26.17
2019-04-14T18:28:06.654Z,26.68
2019-04-14T18:30:48.571Z,26.70
2019-04-14T18:33:44.781Z,25.55
2019-04-14T18:36:35.703Z,26.35
2019-04-14T18:39:28.383Z,26.52
2019-04-14T18:42:14.190Z,27.00
2019-04-14T18:44:59.727Z,27.00
2019-04-14T18:47:47.268Z,26.02
2019-04-14T18:50:40.571Z,26.33
2019-04-14T18:53:20.073Z,26.65
2019-04-14T18:56:17.418Z,26.42
2019-04-14T18:59:24.098Z,26.25
2019-04-14T19:01:59.619Z,27.73
2019-04-14T19:04:34.993Z,26.05
2019-04-14T19:07:10.440Z,27.95
2019-04-14T19:09:45.963Z,26.20
2019-04-14T19:12:44.422Z,28.65
2019-04-14T19:15:41.719Z,26.60
2019-04-14T19:18:25.680Z,28.75
2019-04-14T19:21:06.172Z,27.37
2019-04-14T19:23:42.160Z,27.93
2019-04-14T19:26:17.531Z,28.10
2019-04-14T19:28:52.940Z,27.10
2019-04-14T19:31:28.332Z,26.77
2019-04-14T19:34:04.335Z,26.82
2019-04-14T19:36:39.700Z,26.33
2019-04-14T19:39:15.191Z,26.33
2019-04-14T19:41:50.610Z,26.02
2019-04-14T19:44:26.166Z,26.77
2019-04-14T19:47:01.500Z,27.05
2019-04-14T19:49:36.954Z,27.22
2019-04-14T19:52:12.536Z,26.17
2019-04-14T19:54:48.326Z,27.65
2019-04-14T19:57:23.688Z,26.68
2019-04-14T19:59:59.085Z,27.10
2019-04-14T20:02:34.531Z,26.37
2019-04-14T20:05:10.016Z,25.57
2019-04-14T20:07:45.386Z,26.07
2019-04-14T20:10:20.914Z,26.93
2019-04-14T20:12:56.282Z,25.92
2019-04-14T20:15:50.643Z,25.90
2019-04-14T20:18:45.225Z,27.60
2019-04-14T20:21:51.855Z,27.27
2019-04-14T20:25:01.467Z,26.65
2019-04-14T20:28:04.528Z,25.62
2019-04-14T20:30:46.515Z,27.40
2019-04-14T20:33:21.934Z,25.82
2019-04-14T20:35:57.270Z,24.55
2019-04-14T20:38:34.241Z,24.45
2019-04-14T20:41:09.698Z,24.95
2019-04-14T20:43:45.224Z,24.35
2019-04-14T20:46:20.563Z,24.40
2019-04-14T20:48:56.013Z,24.92
2019-04-14T20:51:31.372Z,26.02
2019-04-14T20:54:06.714Z,24.20
2019-04-14T20:56:42.086Z,23.35
2019-04-14T20:59:21.587Z,23.25
2019-04-14T21:02:10.710Z,22.55
2019-04-14T21:05:11.021Z,23.15
2019-04-14T21:08:08.588Z,21.12
2019-04-14T21:10:50.448Z,22.82
2019-04-14T21:13:35.166Z,22.15
2019-04-14T21:16:15.643Z,21.20
2019-04-14T21:18:54.056Z,21.90
2019-04-14T21:21:42.742Z,21.42
2019-04-14T21:24:37.034Z,21.80
2019-04-14T21:27:29.035Z,22.27
2019-04-14T21:30:43.810Z,21.93
2019-04-14T21:33:38.140Z,21.80
2019-04-14T21:36:20.977Z,23.05
2019-04-14T21:39:13.965Z,22.35
2019-04-14T21:41:51.024Z,22.22
2019-04-14T21:44:26.463Z,21.87
2019-04-14T21:47:02.119Z,21.68
2019-04-14T21:49:37.541Z,20.68
2019-04-14T21:52:29.594Z,22.02
2019-04-14T21:55:05.331Z,22.60
2019-04-14T21:58:00.755Z,24.63
2019-04-14T22:01:40.074Z,22.52
2019-04-14T22:04:45.309Z,22.93
2019-04-14T22:07:42.423Z,22.42
2019-04-14T22:10:35.390Z,21.90
2019-04-14T22:13:10.764Z,23.22
2019-04-14T22:15:46.160Z,23.02
2019-04-14T22:18:21.547Z,23.77
2019-04-14T22:20:56.898Z,22.48
2019-04-14T22:23:32.229Z,22.42
2019-04-14T22:26:07.786Z,22.80
2019-04-14T22:28:43.251Z,22.93
2019-04-14T22:31:18.645Z,21.93
2019-04-14T22:33:54.013Z,21.95
2019-04-14T22:36:29.359Z,23.15
2019-04-14T22:39:07.808Z,22.73
2019-04-14T22:41:44.943Z,23.15
2019-04-14T22:44:20.340Z,22.75
2019-04-14T22:46:55.691Z,21.45
2019-04-14T22:49:31.166Z,22.35
2019-04-14T22:52:06.659Z,22.40
2019-04-14T22:54:42.026Z,23.62
2019-04-14T22:57:17.391Z,22.02
2019-04-14T22:59:52.814Z,22.48
2019-04-14T23:02:37.551Z,22.65
2019-04-14T23:05:30.817Z,22.98
2019-04-14T23:08:12.910Z,23.30
2019-04-14T23:11:05.627Z,23.05
2019-04-14T23:14:02.073Z,21.42
2019-04-14T23:17:06.295Z,22.93
2019-04-14T23:20:12.706Z,22.10
2019-04-14T23:23:07.013Z,22.82
2019-04-14T23:25:42.389Z,23.38
2019-04-14T23:28:17.775Z,22.13
2019-04-14T23:30:53.280Z,23.90
2019-04-14T23:33:28.613Z,23.15
2019-04-14T23:36:03.970Z,22.93
2019-04-14T23:38:39.476Z,22.25
2019-04-14T23:41:14.896Z,22.98
2019-04-14T23:43:50.286Z,24.10
2019-04-14T23:46:25.673Z,22.00
2019-04-14T23:49:01.071Z,21.85
2019-04-14T23:51:36.471Z,22.52
2019-04-14T23:54:11.874Z,23.15
2019-04-14T23:56:47.240Z,23.83
2019-04-14T23:59:22.627Z,23.05
